LCPH Airport Information

Runway Information
Runway 11 Length 8858 ft width 148 ft
Elevation 41 ft Threshold 0 ft Heading 110
Runway 29 Length 8858 ft Width 148 ft
Elevation 30 ft Threshold 0 ft Heading 290
Airport Frequencies
Type APP Name APP Frequency 120.8 MHZ
Type TWR Name TWR Frequency 119.9 MHZ
Airport Navaids
Type TACAN Name Pafos Frequency 113200 KHZ
Type VOR-DME Name Pafos Frequency 117900 KHZ
Type NDB Name Pafos Frequency 328 KHZ
Airport Weather Information & NOTAM
ADDS - METARS form results

(1007 UTC 21 April 2019)
Data provider http://aviationweather.gov/metar/data/
 
METAR text: LCPH 211000Z 32014KT 280V340 9999 FEW025 18/04 Q1014
Conditions at: LCPH (PAPHOS/BAF INTL , CY) observed 1000 UTC 21 April 2019
Temperature: 18.0°C (64°F)
Dewpoint: 4.0°C (39°F) [RH = 39%]
Pressure (altimeter): 29.94 inches Hg (1014.0 mb)
Winds: from the NW (320 degrees) at 16 MPH (14 knots; 7.2 m/s)
Visibility: 6 or more miles (10+ km)
Ceiling: at least 12,000 feet AGL
Clouds: few clouds at 2500 feet AGL
Weather: no significant weather observed at this time

METAR text: LCPH 210930Z 32016KT 270V020 9999 FEW025 18/03 Q1014
Conditions at: LCPH (PAPHOS/BAF INTL , CY) observed 0930 UTC 21 April 2019
Temperature: 18.0°C (64°F)
Dewpoint: 3.0°C (37°F) [RH = 37%]
Pressure (altimeter): 29.94 inches Hg (1014.0 mb)
Winds: from the NW (320 degrees) at 18 MPH (16 knots; 8.2 m/s)
Visibility: 6 or more miles (10+ km)
Ceiling: at least 12,000 feet AGL
Clouds: few clouds at 2500 feet AGL
Weather: no significant weather observed at this time

Forecast for: LCPH (PAPHOS/BAF INTL , CY)
Text: TAF LCPH 210530Z 2106/2206 32016KT 9999 FEW030
Forecast period: 0600 UTC 21 April 2019 to 0600 UTC 22 April 2019
Forecast type: FROM: standard forecast or significant change
Winds: from the NW (320 degrees) at 18 MPH (16 knots; 8.2 m/s)
Visibility: 6 or more miles 10+ km)
Ceiling: at least 12,000 feet AGL
Clouds: few clouds at 3000 feet AGL
Weather: no significant weather forecast for this period
Text: PROB30
Forecast period: 0600 to 0800 UTC 21 April 2019
Forecast type: TEMPORARY: The following changes expected for less than half the time period
Visibility: 3 miles (5 km)
Ceiling: at least 12,000 feet AGL
Clouds: few clouds at 3000 feet AGL
Weather: SHRA VCTS  (rain showers, thunderstorm in vicinity)